Time;durP1;ratioP1;P1;durP2;ratioP2;P2;SDS_P1;SDS_P2;PMS_P1;PMS_P2;Temp;Humidity;BMP_temperature;BMP_pressure;BME280_temperature;BME280_humidity;BME280_pressure;Samples;Min_cycle;Max_cycle;Signal;HPM_P1;HPM_P2
2022/02/21 00:02:24;;;;;;;5.18;1.50;;;8.40;99.90;;;;;;4977074;28;20590;-78
2022/02/21 00:04:50;;;;;;;6.63;1.60;;;8.30;99.90;;;;;;4977227;28;20196;-77
2022/02/21 00:07:16;;;;;;;4.22;1.20;;;8.30;99.90;;;;;;4985263;28;20216;-78
2022/02/21 00:09:41;;;;;;;4.55;0.85;;;8.40;99.90;;;;;;4983153;28;20232;-78
2022/02/21 00:12:10;;;;;;;4.00;1.25;;;8.30;99.90;;;;;;4984978;28;20173;-80
2022/02/21 00:14:39;;;;;;;2.25;0.85;;;8.30;99.90;;;;;;4990836;28;20542;-77
2022/02/21 00:17:04;;;;;;;9.82;1.63;;;8.30;99.90;;;;;;4982702;28;20192;-77
2022/02/21 00:19:30;;;;;;;3.85;1.02;;;8.30;99.90;;;;;;4987424;28;20166;-77
2022/02/21 00:21:55;;;;;;;4.30;1.40;;;8.30;99.90;;;;;;4986358;28;20174;-78
2022/02/21 00:24:22;;;;;;;3.30;0.95;;;8.30;99.90;;;;;;4973513;28;20198;-78
2022/02/21 00:26:50;;;;;;;6.72;1.70;;;8.30;99.90;;;;;;4988202;28;20210;-79
2022/02/21 00:29:16;;;;;;;6.70;1.63;;;8.30;99.90;;;;;;4986952;28;20694;-78
2022/02/21 00:31:42;;;;;;;13.82;1.40;;;8.30;99.90;;;;;;4985480;28;20194;-77
2022/02/21 00:34:08;;;;;;;7.72;1.25;;;8.40;99.90;;;;;;4966496;28;20717;-77
2022/02/21 00:36:34;;;;;;;2.15;0.80;;;8.40;99.90;;;;;;4985472;28;20545;-79
2022/02/21 00:38:59;;;;;;;2.70;0.93;;;8.40;99.90;;;;;;4979816;28;20169;-77
2022/02/21 00:41:25;;;;;;;4.05;1.02;;;8.30;99.90;;;;;;4980120;28;20203;-78
2022/02/21 00:43:51;;;;;;;3.38;0.95;;;8.20;99.90;;;;;;4979529;28;20186;-79
2022/02/21 00:46:16;;;;;;;4.80;1.17;;;8.10;99.90;;;;;;4979024;28;20253;-76
2022/02/21 00:48:42;;;;;;;10.65;1.30;;;8.00;99.90;;;;;;4961141;28;20205;-78
2022/02/21 00:51:09;;;;;;;10.77;1.10;;;7.90;99.90;;;;;;4977294;28;20197;-78
2022/02/21 00:53:34;;;;;;;6.78;1.33;;;7.90;99.90;;;;;;4979876;28;20189;-78
2022/02/21 00:56:00;;;;;;;7.38;1.08;;;7.90;99.90;;;;;;4978247;28;20166;-80
2022/02/21 00:58:27;;;;;;;9.10;1.50;;;7.90;99.90;;;;;;4978825;28;20174;-77
2022/02/21 01:00:52;;;;;;;10.13;1.35;;;7.90;99.90;;;;;;4976412;28;20252;-77
2022/02/21 01:03:18;;;;;;;8.77;1.42;;;7.70;99.90;;;;;;4976616;28;20595;-78
2022/02/21 01:05:43;;;;;;;5.55;1.02;;;7.60;99.90;;;;;;4977261;28;20162;-83
2022/02/21 01:08:09;;;;;;;1.90;1.10;;;7.60;99.90;;;;;;4975261;28;20228;-77
2022/02/21 01:10:36;;;;;;;7.53;1.05;;;7.60;99.90;;;;;;4974967;28;20174;-77
2022/02/21 01:13:02;;;;;;;4.00;1.05;;;7.60;99.90;;;;;;4973689;28;20197;-77
2022/02/21 01:15:28;;;;;;;6.93;1.60;;;7.50;99.90;;;;;;4974510;28;20924;-77
2022/02/21 01:17:53;;;;;;;7.70;1.13;;;7.50;99.90;;;;;;4974666;28;20166;-77
2022/02/21 01:20:19;;;;;;;10.77;1.40;;;7.50;99.90;;;;;;4974638;28;20316;-82
2022/02/21 01:22:44;;;;;;;6.10;1.23;;;7.50;99.90;;;;;;4974446;28;20158;-78
2022/02/21 01:25:10;;;;;;;3.30;1.30;;;7.50;99.90;;;;;;4974231;28;20194;-78
2022/02/21 01:27:36;;;;;;;4.97;1.10;;;7.40;99.90;;;;;;4974495;28;20217;-78
2022/02/21 01:30:05;;;;;;;11.15;1.40;;;7.40;99.90;;;;;;4974326;28;20598;-77
2022/02/21 01:32:30;;;;;;;5.00;0.98;;;7.30;99.90;;;;;;4974224;28;20323;-80
2022/02/21 01:34:56;;;;;;;4.05;0.93;;;7.40;99.90;;;;;;4974081;28;20193;-77
2022/02/21 01:37:21;;;;;;;6.72;0.85;;;7.30;99.90;;;;;;4974339;28;20174;-76
2022/02/21 01:39:48;;;;;;;5.78;1.40;;;7.30;99.90;;;;;;4956827;28;20193;-77
2022/02/21 01:42:14;;;;;;;4.80;1.77;;;7.30;99.90;;;;;;4974352;28;20166;-77
2022/02/21 01:44:42;;;;;;;4.40;1.02;;;7.30;99.90;;;;;;4973741;28;20185;-76
2022/02/21 01:47:10;;;;;;;5.10;1.17;;;7.30;99.90;;;;;;4974069;28;20205;-77
2022/02/21 01:49:36;;;;;;;3.25;1.10;;;7.20;99.90;;;;;;4974122;28;20276;-77
2022/02/21 01:52:03;;;;;;;8.82;1.80;;;7.20;99.90;;;;;;4973892;28;20662;-78
2022/02/21 01:54:29;;;;;;;5.15;1.15;;;7.20;99.90;;;;;;4973901;28;20225;-77
2022/02/21 01:56:55;;;;;;;10.75;1.85;;;7.20;99.90;;;;;;4974120;28;20277;-76
2022/02/21 01:59:21;;;;;;;5.45;1.40;;;7.20;99.90;;;;;;4973934;28;20678;-77
2022/02/21 02:01:48;;;;;;;3.70;1.17;;;7.20;99.90;;;;;;4973885;28;20166;-78
2022/02/21 02:04:14;;;;;;;8.65;1.40;;;7.20;99.90;;;;;;4973803;28;20182;-76
2022/02/21 02:06:39;;;;;;;4.32;1.52;;;7.30;99.90;;;;;;4974157;28;20308;-76
2022/02/21 02:09:05;;;;;;;5.82;1.15;;;7.20;99.90;;;;;;4974295;28;20162;-77
2022/02/21 02:11:36;;;;;;;11.52;1.88;;;7.10;99.90;;;;;;4973941;28;20170;-77
2022/02/21 02:14:02;;;;;;;8.95;1.27;;;7.10;99.90;;;;;;4975239;28;20239;-76
2022/02/21 02:16:27;;;;;;;6.28;0.73;;;7.10;99.90;;;;;;4982507;28;20159;-76
2022/02/21 02:18:53;;;;;;;8.30;1.08;;;7.00;99.90;;;;;;4996067;28;20226;-76
2022/02/21 02:21:21;;;;;;;8.13;1.45;;;7.00;99.90;;;;;;4973874;28;20174;-78
2022/02/21 02:23:49;;;;;;;9.30;1.52;;;7.00;99.90;;;;;;4973569;28;20666;-77
2022/02/21 02:26:16;;;;;;;5.35;1.48;;;6.90;99.90;;;;;;4973770;28;20204;-78
2022/02/21 02:28:42;;;;;;;10.27;1.20;;;6.90;99.90;;;;;;4973694;28;20675;-77
2022/02/21 02:31:08;;;;;;;7.72;1.20;;;6.90;99.90;;;;;;4973536;28;20170;-80
2022/02/21 02:33:34;;;;;;;8.30;1.40;;;6.90;99.90;;;;;;4973260;28;20190;-77
2022/02/21 02:36:00;;;;;;;5.80;1.80;;;6.90;99.90;;;;;;4973855;28;20643;-77
2022/02/21 02:38:26;;;;;;;7.70;1.63;;;6.90;99.90;;;;;;4973923;28;20181;-76
2022/02/21 02:40:51;;;;;;;11.25;1.90;;;7.00;99.90;;;;;;4973420;28;20185;-77
2022/02/21 02:43:17;;;;;;;9.07;1.70;;;7.00;99.90;;;;;;4973411;28;20166;-77
2022/02/21 02:45:44;;;;;;;12.32;1.48;;;7.00;99.90;;;;;;4973427;28;20641;-78
2022/02/21 02:48:11;;;;;;;9.93;2.22;;;7.00;99.90;;;;;;4973730;28;20265;-78
2022/02/21 02:50:37;;;;;;;5.97;1.67;;;7.00;99.90;;;;;;4973720;28;20170;-78
2022/02/21 02:53:03;;;;;;;1.92;1.13;;;6.90;99.90;;;;;;4973409;28;20537;-77
2022/02/21 02:55:28;;;;;;;6.82;2.08;;;6.80;99.90;;;;;;4973451;28;20182;-77
2022/02/21 02:57:54;;;;;;;9.18;1.35;;;6.80;99.90;;;;;;4974204;28;20249;-77
2022/02/21 03:00:19;;;;;;;13.15;1.05;;;6.80;99.90;;;;;;4973314;28;20162;-77
2022/02/21 03:02:45;;;;;;;8.38;1.88;;;6.70;99.90;;;;;;4973325;28;20232;-77
2022/02/21 03:05:11;;;;;;;10.75;2.05;;;6.70;99.90;;;;;;4973128;28;20186;-77
2022/02/21 03:07:36;;;;;;;6.95;1.70;;;6.70;99.90;;;;;;4956094;28;20209;-78
2022/02/21 03:10:03;;;;;;;7.07;1.90;;;6.60;99.90;;;;;;4956064;28;20174;-77
2022/02/21 03:12:28;;;;;;;6.80;1.50;;;6.60;99.90;;;;;;4973355;28;20216;-77
2022/02/21 03:14:54;;;;;;;2.95;1.55;;;6.60;99.90;;;;;;4975485;28;20670;-78
2022/02/21 03:17:20;;;;;;;11.55;1.90;;;6.60;99.90;;;;;;4976625;28;20250;-77
2022/02/21 03:19:45;;;;;;;8.45;1.80;;;6.60;99.90;;;;;;4976916;28;20194;-77
2022/02/21 03:22:11;;;;;;;6.88;1.15;;;6.60;99.90;;;;;;4976936;28;20174;-78
2022/02/21 03:24:36;;;;;;;5.82;1.77;;;6.60;99.90;;;;;;4976838;28;20265;-82
2022/02/21 03:27:02;;;;;;;10.75;2.22;;;6.60;99.90;;;;;;4976466;28;20220;-77
2022/02/21 03:29:28;;;;;;;9.93;2.03;;;6.50;99.90;;;;;;4976739;28;20189;-78
2022/02/21 03:31:53;;;;;;;16.33;2.47;;;6.50;99.90;;;;;;4976652;28;20176;-78
2022/02/21 03:34:19;;;;;;;7.97;1.58;;;6.60;99.90;;;;;;4976631;28;20655;-77
2022/02/21 03:36:44;;;;;;;7.03;1.33;;;6.60;99.90;;;;;;4976356;28;20227;-77
2022/02/21 03:39:10;;;;;;;9.35;2.22;;;6.70;99.90;;;;;;4976281;28;20569;-77
2022/02/21 03:41:36;;;;;;;5.75;1.67;;;6.80;99.90;;;;;;4959712;28;20240;-81
2022/02/21 03:44:02;;;;;;;7.72;2.17;;;6.80;99.90;;;;;;4978433;28;20194;-77
2022/02/21 03:46:28;;;;;;;10.52;1.75;;;6.80;99.90;;;;;;4979790;28;20705;-77
2022/02/21 03:48:54;;;;;;;8.43;1.65;;;6.80;99.90;;;;;;4979036;28;20166;-76
2022/02/21 03:51:20;;;;;;;2.03;1.10;;;6.80;99.90;;;;;;4979241;28;20173;-77
2022/02/21 03:53:46;;;;;;;7.50;1.42;;;6.80;99.90;;;;;;4979668;28;20185;-77
2022/02/21 03:56:13;;;;;;;16.27;1.80;;;6.80;99.90;;;;;;4978898;28;20582;-76
2022/02/21 03:58:41;;;;;;;12.35;2.60;;;6.80;99.90;;;;;;4979534;28;20520;-77
2022/02/21 04:01:07;;;;;;;12.57;2.15;;;6.80;99.90;;;;;;4986545;28;20194;-77
2022/02/21 04:03:32;;;;;;;7.18;1.85;;;6.90;99.90;;;;;;4991738;28;20190;-77
2022/02/21 04:05:58;;;;;;;10.70;2.33;;;6.90;99.90;;;;;;4992358;28;20181;-77
2022/02/21 04:08:23;;;;;;;10.52;1.67;;;6.80;99.90;;;;;;4991054;28;20177;-77
2022/02/21 04:10:49;;;;;;;13.38;2.10;;;6.90;99.90;;;;;;4981968;28;20166;-77
2022/02/21 04:13:15;;;;;;;7.55;2.33;;;6.90;99.90;;;;;;4964434;28;20182;-76
2022/02/21 04:15:40;;;;;;;7.75;1.50;;;6.90;99.90;;;;;;4977906;28;20170;-77
2022/02/21 04:18:06;;;;;;;15.85;2.15;;;6.90;99.90;;;;;;4977705;28;20172;-76
2022/02/21 04:20:32;;;;;;;9.90;1.67;;;6.90;99.90;;;;;;4961995;28;20166;-80
2022/02/21 04:22:57;;;;;;;13.38;2.03;;;6.80;99.90;;;;;;4960866;28;20197;-77
2022/02/21 04:25:24;;;;;;;11.50;2.28;;;6.80;99.90;;;;;;4979377;28;20182;-77
2022/02/21 04:27:53;;;;;;;12.52;1.63;;;6.80;99.90;;;;;;4978844;28;20220;-76
2022/02/21 04:30:21;;;;;;;3.58;1.40;;;6.80;99.90;;;;;;4978390;28;20181;-78
2022/02/21 04:32:48;;;;;;;8.23;2.17;;;6.80;99.90;;;;;;4978122;28;20613;-77
2022/02/21 04:35:17;;;;;;;7.97;1.85;;;6.80;99.90;;;;;;4975869;28;20215;-77
2022/02/21 04:37:45;;;;;;;7.70;1.70;;;6.90;99.90;;;;;;4979801;28;20174;-77
2022/02/21 04:40:16;;;;;;;4.93;1.55;;;6.80;99.90;;;;;;4980213;28;20174;-76
2022/02/21 04:42:42;;;;;;;11.02;1.65;;;6.90;99.90;;;;;;4977971;28;20167;-76
2022/02/21 04:45:08;;;;;;;8.07;1.55;;;6.80;99.90;;;;;;4989560;28;20192;-77
2022/02/21 04:47:34;;;;;;;8.18;1.55;;;6.90;99.90;;;;;;4969013;28;20241;-77
2022/02/21 04:50:00;;;;;;;11.60;2.00;;;6.80;99.90;;;;;;4978136;28;20170;-77
2022/02/21 04:52:26;;;;;;;11.23;1.60;;;6.80;99.90;;;;;;4962461;28;20264;-76
2022/02/21 04:54:52;;;;;;;4.50;1.98;;;6.80;99.90;;;;;;4963503;28;20217;-76
2022/02/21 04:57:18;;;;;;;6.70;1.55;;;6.80;99.90;;;;;;4979234;28;20178;-77
2022/02/21 04:59:43;;;;;;;4.20;1.75;;;6.80;99.90;;;;;;4981053;28;20170;-78
2022/02/21 05:02:09;;;;;;;15.25;1.95;;;6.80;99.90;;;;;;4978886;28;20260;-77
2022/02/21 05:04:35;;;;;;;4.88;1.50;;;6.80;99.90;;;;;;4962038;28;20690;-77
2022/02/21 05:07:00;;;;;;;8.50;2.08;;;6.70;99.90;;;;;;4977690;28;20224;-77
2022/02/21 05:11:51;;;;;;;4.57;1.05;;;6.60;99.90;;;;;;4977806;28;20220;-77
2022/02/21 05:14:17;;;;;;;9.52;1.65;;;6.60;99.90;;;;;;4978154;28;20189;-86
2022/02/21 05:16:45;;;;;;;5.25;1.52;;;6.60;99.90;;;;;;4980091;28;20547;-75
2022/02/21 05:19:10;;;;;;;14.40;1.85;;;6.60;99.90;;;;;;4963460;28;20166;-76
2022/02/21 05:21:36;;;;;;;5.65;1.83;;;6.60;99.90;;;;;;4982363;28;20192;-77
2022/02/21 05:24:02;;;;;;;6.22;1.25;;;6.50;99.90;;;;;;4982743;28;20186;-77
2022/02/21 05:26:27;;;;;;;8.00;1.17;;;6.50;99.90;;;;;;4984154;28;20202;-77
2022/02/21 05:28:53;;;;;;;4.82;1.23;;;6.40;99.90;;;;;;4984867;28;20193;-76
2022/02/21 05:31:21;;;;;;;6.75;1.27;;;6.30;99.90;;;;;;4983325;28;20170;-77
2022/02/21 05:33:47;;;;;;;4.75;1.55;;;6.20;99.90;;;;;;4964136;28;20249;-77
2022/02/21 05:36:13;;;;;;;8.13;1.10;;;6.20;99.90;;;;;;4961838;28;20170;-77
2022/02/21 05:38:38;;;;;;;7.63;1.10;;;6.10;99.90;;;;;;4951171;28;20181;-77
2022/02/21 05:41:04;;;;;;;2.83;0.75;;;6.10;99.90;;;;;;4977133;28;20623;-77
2022/02/21 05:43:29;;;;;;;8.15;1.02;;;6.10;99.90;;;;;;4959285;28;20174;-77
2022/02/21 05:45:55;;;;;;;4.15;1.15;;;6.00;99.90;;;;;;4976960;28;20677;-76
2022/02/21 05:48:20;;;;;;;11.00;1.92;;;6.10;99.90;;;;;;4978310;28;20217;-77
2022/02/21 05:50:46;;;;;;;6.18;1.38;;;6.00;99.90;;;;;;4978746;28;20536;-77
2022/02/21 05:53:12;;;;;;;3.80;1.00;;;6.00;99.90;;;;;;4973577;28;20182;-77
2022/02/21 05:55:37;;;;;;;5.82;1.25;;;6.10;99.90;;;;;;4973365;28;20249;-77
2022/02/21 05:58:03;;;;;;;9.90;1.25;;;6.00;99.90;;;;;;4974364;28;20166;-77
2022/02/21 06:00:29;;;;;;;2.05;0.95;;;5.90;99.90;;;;;;4976332;28;20758;-77
2022/02/21 06:02:55;;;;;;;5.28;1.17;;;5.90;99.90;;;;;;4979295;28;20201;-77
2022/02/21 06:05:20;;;;;;;6.57;1.52;;;6.00;99.90;;;;;;4979769;28;20643;-77
2022/02/21 06:07:46;;;;;;;9.10;1.38;;;5.90;99.90;;;;;;4978137;28;20209;-76
2022/02/21 06:10:12;;;;;;;13.77;2.08;;;5.90;99.90;;;;;;4978081;28;20654;-76
2022/02/21 06:12:37;;;;;;;9.82;1.48;;;5.90;99.90;;;;;;4976500;28;20602;-76
2022/02/21 06:15:03;;;;;;;10.00;1.40;;;5.80;99.90;;;;;;4974337;28;20177;-77
2022/02/21 06:17:29;;;;;;;6.20;1.08;;;5.70;99.90;;;;;;4980481;28;20172;-77
2022/02/21 06:19:54;;;;;;;6.03;1.48;;;5.70;99.90;;;;;;4975046;28;20173;-77
2022/02/21 06:22:21;;;;;;;11.27;1.17;;;5.70;99.90;;;;;;4975528;28;20181;-77
2022/02/21 06:24:47;;;;;;;8.27;1.45;;;5.70;99.90;;;;;;4976946;28;20277;-77
2022/02/21 06:27:13;;;;;;;6.65;1.83;;;5.70;99.90;;;;;;4974204;28;20205;-78
2022/02/21 06:29:38;;;;;;;4.03;1.83;;;5.70;99.90;;;;;;4974710;28;20185;-76
2022/02/21 06:32:04;;;;;;;6.45;1.58;;;5.70;99.90;;;;;;4974051;28;20176;-77
2022/02/21 06:34:30;;;;;;;8.00;1.23;;;5.60;99.90;;;;;;4956775;28;20559;-76
2022/02/21 06:36:56;;;;;;;4.28;1.30;;;5.60;99.90;;;;;;4974257;28;20232;-78
2022/02/21 06:39:21;;;;;;;7.60;1.10;;;5.60;99.90;;;;;;4976662;28;20162;-83
2022/02/21 06:41:50;;;;;;;13.70;2.40;;;5.60;99.90;;;;;;4980746;28;20170;-77
2022/02/21 06:44:17;;;;;;;12.68;1.13;;;5.60;99.90;;;;;;4960935;28;20189;-78
2022/02/21 06:46:44;;;;;;;8.85;1.33;;;5.60;99.90;;;;;;4977500;28;20210;-79
2022/02/21 06:49:13;;;;;;;3.63;1.15;;;5.60;99.90;;;;;;4979492;28;20162;-79
2022/02/21 06:51:38;;;;;;;7.72;1.50;;;5.70;99.90;;;;;;4982900;28;20170;-78
2022/02/21 06:54:05;;;;;;;6.82;1.60;;;5.60;99.90;;;;;;4982063;28;20245;-79
2022/02/21 06:56:31;;;;;;;10.35;1.70;;;5.50;99.90;;;;;;4962255;28;20184;-77
2022/02/21 06:58:59;;;;;;;4.00;1.10;;;5.50;99.90;;;;;;4980707;28;20248;-78
2022/02/21 07:01:26;;;;;;;3.35;1.15;;;5.60;99.90;;;;;;4981285;28;20170;-78
2022/02/21 07:03:54;;;;;;;10.02;1.58;;;5.60;99.90;;;;;;4982069;28;20260;-79
2022/02/21 07:06:19;;;;;;;10.82;1.80;;;5.60;99.90;;;;;;4976831;28;20197;-78
2022/02/21 07:08:45;;;;;;;5.72;1.25;;;5.70;99.90;;;;;;4980257;28;20237;-90
2022/02/21 07:11:11;;;;;;;2.55;1.05;;;5.70;99.90;;;;;;4976771;28;20592;-78
2022/02/21 07:13:37;;;;;;;8.32;1.50;;;5.70;99.90;;;;;;4977258;28;20272;-77
2022/02/21 07:16:03;;;;;;;10.27;1.67;;;5.80;99.90;;;;;;4982669;28;20170;-78
2022/02/21 07:18:29;;;;;;;7.78;1.65;;;5.80;99.90;;;;;;4995931;28;20147;-77
2022/02/21 07:20:54;;;;;;;4.97;1.65;;;5.80;99.90;;;;;;4987815;28;20186;-79
2022/02/21 07:23:20;;;;;;;5.13;1.30;;;5.90;99.90;;;;;;4976950;28;20186;-78
2022/02/21 07:25:46;;;;;;;6.10;1.30;;;5.90;99.90;;;;;;4978105;28;20578;-77
2022/02/21 07:28:12;;;;;;;9.85;2.00;;;6.00;99.90;;;;;;4976474;28;20702;-78
2022/02/21 07:30:38;;;;;;;4.15;1.90;;;6.10;99.90;;;;;;4976538;28;20182;-78
2022/02/21 07:33:05;;;;;;;8.30;1.00;;;6.20;99.90;;;;;;4980037;28;20634;-77
2022/02/21 07:35:30;;;;;;;5.57;1.77;;;6.30;99.90;;;;;;4977802;28;20185;-78
2022/02/21 07:37:56;;;;;;;14.48;2.20;;;6.40;99.90;;;;;;4979910;28;20177;-77
2022/02/21 07:40:22;;;;;;;10.65;1.63;;;6.50;99.90;;;;;;4976405;28;20193;-77
2022/02/21 07:42:51;;;;;;;7.50;1.17;;;6.60;99.90;;;;;;4976581;28;20528;-78
2022/02/21 07:45:19;;;;;;;4.82;1.58;;;6.50;99.90;;;;;;4958658;28;20209;-77
2022/02/21 07:47:46;;;;;;;4.20;1.75;;;6.50;99.90;;;;;;4976330;28;20241;-78
2022/02/21 07:50:12;;;;;;;4.93;1.30;;;6.50;99.90;;;;;;4976091;28;20173;-77
2022/02/21 07:52:38;;;;;;;5.90;1.27;;;6.50;99.90;;;;;;4975934;28;20166;-78
2022/02/21 07:55:04;;;;;;;3.83;1.58;;;6.60;99.90;;;;;;4975956;28;20178;-81
2022/02/21 07:57:30;;;;;;;9.88;2.45;;;6.70;99.90;;;;;;4975664;28;20198;-83
2022/02/21 07:59:57;;;;;;;3.47;1.63;;;6.70;99.90;;;;;;4974421;28;20213;-87
2022/02/21 08:02:24;;;;;;;4.10;1.85;;;6.70;99.90;;;;;;4959851;28;20177;-83
2022/02/21 08:04:50;;;;;;;9.32;1.90;;;6.90;99.90;;;;;;4975889;28;20220;-78
2022/02/21 08:07:15;;;;;;;5.18;1.23;;;6.90;99.90;;;;;;4945034;29;20614;-89
2022/02/21 08:09:41;;;;;;;4.30;1.60;;;7.00;99.90;;;;;;4975049;28;20240;-83
2022/02/21 08:12:08;;;;;;;11.93;1.67;;;7.00;99.90;;;;;;4975997;28;20170;-79
2022/02/21 08:14:35;;;;;;;9.43;2.58;;;7.00;99.90;;;;;;4959189;28;20202;-85
2022/02/21 08:17:01;;;;;;;16.58;2.13;;;7.00;99.90;;;;;;4975953;28;20181;-86
2022/02/21 08:19:26;;;;;;;7.95;1.80;;;7.00;99.90;;;;;;4978896;28;20162;-78
2022/02/21 08:21:52;;;;;;;10.60;1.38;;;7.00;99.90;;;;;;4993487;28;20189;-78
2022/02/21 08:24:19;;;;;;;13.23;1.80;;;7.10;99.90;;;;;;4993719;28;20198;-78
2022/02/21 08:26:45;;;;;;;15.30;1.65;;;7.10;99.90;;;;;;4978494;28;20198;-79
2022/02/21 08:29:10;;;;;;;6.10;1.20;;;7.30;99.90;;;;;;4977925;28;20212;-79
2022/02/21 08:31:36;;;;;;;7.95;1.83;;;7.30;99.90;;;;;;4975245;28;20170;-78
2022/02/21 08:34:01;;;;;;;8.13;1.60;;;7.40;99.90;;;;;;4957333;28;20193;-82
2022/02/21 08:36:27;;;;;;;3.67;1.58;;;7.50;99.90;;;;;;4956275;28;20535;-79
2022/02/21 08:38:53;;;;;;;6.78;1.92;;;7.50;99.90;;;;;;4972944;28;20185;-79
2022/02/21 08:41:19;;;;;;;9.85;1.92;;;7.50;99.90;;;;;;4956959;28;20178;-81
2022/02/21 08:43:45;;;;;;;9.27;2.40;;;7.50;99.90;;;;;;4970474;28;20681;-81
2022/02/21 08:46:11;;;;;;;4.97;1.67;;;7.40;99.90;;;;;;4972597;28;20681;-81
2022/02/21 08:48:37;;;;;;;10.40;1.90;;;7.50;99.90;;;;;;4953944;28;20178;-80
2022/02/21 08:51:03;;;;;;;16.48;2.15;;;7.50;99.90;;;;;;4969180;28;20178;-81
2022/02/21 08:53:29;;;;;;;12.38;2.17;;;7.40;99.90;;;;;;4955222;28;20182;-81
2022/02/21 08:55:55;;;;;;;4.80;1.65;;;7.40;99.90;;;;;;4973721;28;20657;-81
2022/02/21 08:58:20;;;;;;;16.55;1.63;;;7.40;99.90;;;;;;4982535;28;20200;-81
2022/02/21 09:00:46;;;;;;;19.92;2.75;;;7.30;99.90;;;;;;4976240;28;20170;-81
2022/02/21 09:03:11;;;;;;;16.40;2.78;;;7.20;99.90;;;;;;4959445;28;20184;-87
2022/02/21 09:05:37;;;;;;;15.25;1.85;;;7.30;99.90;;;;;;4976115;28;20248;-81
2022/02/21 09:08:06;;;;;;;14.73;2.47;;;7.20;99.90;;;;;;4974478;28;20621;-83
2022/02/21 09:10:32;;;;;;;12.60;3.28;;;7.10;99.90;;;;;;4957152;28;20196;-81
2022/02/21 09:13:01;;;;;;;9.35;2.67;;;7.20;99.90;;;;;;4957207;28;20170;-80
2022/02/21 09:15:27;;;;;;;18.08;2.40;;;7.20;99.90;;;;;;4974661;28;20192;-80
2022/02/21 09:17:53;;;;;;;12.60;2.20;;;7.20;99.90;;;;;;4957998;28;20174;-85
2022/02/21 09:20:19;;;;;;;12.27;1.88;;;7.30;99.90;;;;;;4974949;28;20597;-80
2022/02/21 09:22:45;;;;;;;14.48;2.10;;;7.40;99.90;;;;;;4958288;28;20170;-80
2022/02/21 09:25:12;;;;;;;15.13;2.75;;;7.40;99.90;;;;;;4957016;28;20198;-80
2022/02/21 09:27:37;;;;;;;13.93;2.35;;;7.40;99.90;;;;;;4957148;28;20674;-81
2022/02/21 09:30:10;;;;;;;10.75;2.28;;;7.40;99.90;;;;;;4957361;28;20269;-82
2022/02/21 09:32:35;;;;;;;10.73;2.95;;;7.50;99.90;;;;;;4957462;28;20170;-82
2022/02/21 09:35:01;;;;;;;17.88;2.67;;;7.60;99.90;;;;;;4957383;28;20193;-82
2022/02/21 09:37:28;;;;;;;21.08;3.28;;;7.70;99.90;;;;;;4980743;28;20174;-80
2022/02/21 09:39:54;;;;;;;11.73;1.60;;;7.70;99.90;;;;;;4994141;28;20178;-79
2022/02/21 09:42:21;;;;;;;14.07;2.65;;;7.70;99.90;;;;;;4968554;28;20592;-80
2022/02/21 09:44:47;;;;;;;9.15;2.15;;;7.70;99.90;;;;;;4974704;28;20190;-80
2022/02/21 09:47:17;;;;;;;20.88;3.13;;;7.70;99.90;;;;;;4974551;28;20674;-79
2022/02/21 09:49:42;;;;;;;14.25;2.95;;;7.70;99.90;;;;;;4974227;28;20557;-79
2022/02/21 09:52:08;;;;;;;12.82;2.70;;;7.70;99.90;;;;;;4974785;28;20181;-79
2022/02/21 09:54:34;;;;;;;9.30;2.58;;;7.70;99.90;;;;;;4973977;28;20205;-79
2022/02/21 09:57:00;;;;;;;16.80;2.50;;;7.80;99.90;;;;;;4974199;28;20177;-79
2022/02/21 09:59:25;;;;;;;18.83;3.22;;;7.80;99.90;;;;;;4973807;28;20161;-79
2022/02/21 10:01:51;;;;;;;17.08;2.78;;;8.00;99.90;;;;;;4974282;28;20654;-79
2022/02/21 10:04:27;;;;;;;17.30;3.55;;;8.00;99.90;;;;;;4974461;28;20215;-79
2022/02/21 10:06:55;;;;;;;20.25;2.97;;;8.00;99.90;;;;;;4958868;28;20231;-79
2022/02/21 10:09:24;;;;;;;23.02;3.60;;;8.10;99.90;;;;;;4975180;28;20194;-79
2022/02/21 10:11:50;;;;;;;8.90;2.65;;;8.10;99.90;;;;;;4974360;28;20170;-79
2022/02/21 10:14:24;;;;;;;11.80;2.67;;;8.10;99.90;;;;;;4974414;28;20189;-80
2022/02/21 10:16:55;;;;;;;15.68;4.20;;;8.20;99.90;;;;;;4973993;28;20273;-80
2022/02/21 10:19:24;;;;;;;13.63;3.30;;;8.40;99.90;;;;;;4974838;28;20158;-80
2022/02/21 10:22:01;;;;;;;13.65;4.10;;;8.40;99.90;;;;;;4958307;28;20208;-79
2022/02/21 10:24:37;;;;;;;19.10;3.92;;;8.50;99.90;;;;;;4976073;28;20193;-79
2022/02/21 10:27:14;;;;;;;15.82;2.58;;;8.50;99.90;;;;;;4967747;28;20651;-80
2022/02/21 10:29:51;;;;;;;20.38;3.40;;;8.50;99.90;;;;;;4977431;28;20208;-80
2022/02/21 10:32:28;;;;;;;19.13;3.45;;;8.70;99.90;;;;;;4960081;28;20236;-81
2022/02/21 10:34:54;;;;;;;18.10;2.78;;;9.00;99.90;;;;;;4977932;28;20189;-79
2022/02/21 10:37:26;;;;;;;20.25;3.20;;;9.20;99.90;;;;;;4961068;28;20252;-78
2022/02/21 10:40:08;;;;;;;11.32;2.67;;;9.40;99.90;;;;;;4978013;28;20177;-77
2022/02/21 10:42:34;;;;;;;26.42;3.50;;;9.30;99.90;;;;;;4962700;28;20174;-77
2022/02/21 10:45:30;;;;;;;25.33;3.53;;;9.20;99.90;;;;;;4980487;28;20243;-77
2022/02/21 10:48:01;;;;;;;15.48;3.53;;;8.90;99.90;;;;;;4968764;28;20244;-77
2022/02/21 10:50:28;;;;;;;17.30;2.92;;;8.70;99.90;;;;;;4977149;28;20173;-77
2022/02/21 10:52:54;;;;;;;14.35;2.75;;;8.60;99.90;;;;;;4977076;28;20198;-76
2022/02/21 10:55:19;;;;;;;22.20;2.38;;;8.50;99.90;;;;;;4976579;28;20622;-77
2022/02/21 10:57:47;;;;;;;20.55;3.53;;;8.40;99.90;;;;;;4979182;28;20170;-79
2022/02/21 11:00:13;;;;;;;20.42;3.30;;;8.30;99.90;;;;;;4977853;28;20178;-79
2022/02/21 11:02:41;;;;;;;9.10;2.17;;;8.30;99.90;;;;;;4976539;28;20662;-79
2022/02/21 11:05:27;;;;;;;20.95;3.80;;;8.20;99.90;;;;;;4980058;28;20651;-78
2022/02/21 11:07:53;;;;;;;19.20;3.72;;;8.10;99.90;;;;;;4984938;28;20229;-78
2022/02/21 11:10:21;;;;;;;29.40;4.35;;;8.00;99.90;;;;;;4968777;28;20174;-78
2022/02/21 11:12:51;;;;;;;17.73;3.17;;;8.00;99.90;;;;;;4969471;28;20166;-78
2022/02/21 11:15:18;;;;;;;13.48;3.40;;;8.00;99.90;;;;;;4968429;28;20600;-78
2022/02/21 11:17:44;;;;;;;22.60;3.20;;;7.90;99.90;;;;;;4977287;28;20265;-77
2022/02/21 11:20:10;;;;;;;22.25;3.63;;;7.80;99.90;;;;;;4976561;28;20174;-79
2022/02/21 11:22:36;;;;;;;27.60;5.22;;;7.80;99.90;;;;;;4978178;28;20217;-77
2022/02/21 11:25:11;;;;;;;22.38;3.55;;;7.80;99.90;;;;;;4981864;28;20292;-81
2022/02/21 11:27:49;;;;;;;20.42;3.85;;;7.70;99.90;;;;;;4983801;28;20215;-78
2022/02/21 11:30:19;;;;;;;25.45;5.18;;;7.70;99.90;;;;;;4980463;28;20228;-79
2022/02/21 11:33:07;;;;;;;21.83;3.22;;;7.60;99.90;;;;;;4980841;28;20166;-78
2022/02/21 11:35:36;;;;;;;30.33;4.10;;;7.60;99.90;;;;;;4980711;28;20280;-80
2022/02/21 11:38:20;;;;;;;22.63;3.17;;;7.60;99.90;;;;;;4978658;28;20162;-78
2022/02/21 11:41:09;;;;;;;26.25;4.63;;;7.70;99.90;;;;;;4978977;28;20178;-78
2022/02/21 11:43:46;;;;;;;18.25;4.00;;;7.80;99.90;;;;;;4977575;28;20185;-78
2022/02/21 11:46:24;;;;;;;25.17;3.67;;;7.90;99.90;;;;;;4979440;28;20169;-78
2022/02/21 11:48:54;;;;;;;32.75;4.95;;;7.90;99.90;;;;;;4964759;28;20178;-78
2022/02/21 11:51:41;;;;;;;33.92;4.00;;;8.00;99.90;;;;;;4959545;28;20213;-82
2022/02/21 11:54:09;;;;;;;32.90;4.47;;;8.10;99.90;;;;;;4983962;28;20216;-79
2022/02/21 11:56:50;;;;;;;28.98;4.03;;;8.20;99.90;;;;;;4981416;28;20178;-78
2022/02/21 11:59:22;;;;;;;27.50;4.30;;;8.30;99.90;;;;;;4980531;28;20174;-78
2022/02/21 12:02:00;;;;;;;23.30;3.47;;;8.20;99.90;;;;;;4984654;28;20169;-78
2022/02/21 12:04:26;;;;;;;19.83;3.85;;;8.20;99.90;;;;;;4995649;28;20189;-80
2022/02/21 12:06:59;;;;;;;26.80;4.22;;;8.20;99.90;;;;;;4992759;28;20221;-78
2022/02/21 12:09:29;;;;;;;32.40;5.00;;;8.30;99.90;;;;;;4978853;28;20166;-80
2022/02/21 12:12:22;;;;;;;28.95;5.07;;;8.40;99.90;;;;;;4969104;28;20182;-78
2022/02/21 12:15:24;;;;;;;13.07;4.28;;;8.30;99.90;;;;;;4977512;28;20193;-79
2022/02/21 12:18:06;;;;;;;16.73;3.05;;;8.40;99.90;;;;;;4921644;29;20488;-82
2022/02/21 12:20:33;;;;;;;24.98;4.15;;;8.40;99.90;;;;;;4976972;28;20621;-79
2022/02/21 12:23:05;;;;;;;26.75;4.68;;;8.50;99.90;;;;;;4975608;28;20170;-80
2022/02/21 12:25:39;;;;;;;24.25;4.45;;;8.60;99.90;;;;;;4975820;28;20205;-81
2022/02/21 12:28:22;;;;;;;22.70;4.95;;;8.60;99.90;;;;;;4976754;28;20387;-78
2022/02/21 12:30:57;;;;;;;19.55;4.97;;;8.50;99.90;;;;;;4957362;28;20284;-79
2022/02/21 12:33:34;;;;;;;27.77;4.25;;;8.60;99.90;;;;;;4976180;28;20177;-78
2022/02/21 12:36:02;;;;;;;30.63;4.35;;;8.60;99.90;;;;;;4961294;28;20184;-79
2022/02/21 12:38:32;;;;;;;22.80;3.55;;;8.70;99.90;;;;;;4983304;28;20178;-79
2022/02/21 12:41:09;;;;;;;24.30;4.28;;;8.70;99.90;;;;;;4989545;28;20193;-78
2022/02/21 12:43:44;;;;;;;17.55;4.80;;;8.60;99.90;;;;;;4973158;28;20205;-81
2022/02/21 12:46:09;;;;;;;12.27;3.58;;;8.50;99.90;;;;;;4965342;28;20236;-80
2022/02/21 12:48:36;;;;;;;23.27;4.05;;;8.50;99.90;;;;;;4976949;28;20204;-83
2022/02/21 12:51:03;;;;;;;25.67;3.20;;;8.40;99.90;;;;;;4978980;28;20174;-83
2022/02/21 12:53:29;;;;;;;17.38;4.50;;;8.40;99.90;;;;;;4963338;28;20665;-83
2022/02/21 12:55:59;;;;;;;31.75;5.38;;;8.40;99.90;;;;;;4977739;28;20214;-83
2022/02/21 12:58:38;;;;;;;16.42;3.05;;;8.40;99.90;;;;;;4976635;28;20174;-81